sensor_id;sensor_type;location;lat;lon;timestamp;P1;durP1;ratioP1;P2;durP2;ratioP2
49758;SDS011;70329;45.524;10.194;2023-06-22T09:04:45;18.85;;;14.38;;
49758;SDS011;70329;45.524;10.194;2023-06-22T09:07:12;24.10;;;14.90;;
49758;SDS011;70329;45.524;10.194;2023-06-22T09:09:39;19.95;;;14.95;;
49758;SDS011;70329;45.524;10.194;2023-06-22T09:12:05;19.38;;;14.43;;
49758;SDS011;70329;45.524;10.194;2023-06-22T09:14:32;22.02;;;14.70;;
49758;SDS011;70329;45.524;10.194;2023-06-22T09:16:59;19.73;;;14.23;;
49758;SDS011;70329;45.524;10.194;2023-06-22T09:19:24;20.25;;;14.75;;
49758;SDS011;70329;45.524;10.194;2023-06-22T09:21:51;22.95;;;14.52;;
49758;SDS011;70329;45.524;10.194;2023-06-22T09:24:18;21.92;;;14.45;;
49758;SDS011;70329;45.524;10.194;2023-06-22T09:26:44;21.42;;;14.82;;
49758;SDS011;70329;45.524;10.194;2023-06-22T09:29:11;22.52;;;13.65;;
49758;SDS011;70329;45.524;10.194;2023-06-22T09:31:38;25.00;;;14.60;;
49758;SDS011;70329;45.524;10.194;2023-06-22T09:34:05;20.80;;;13.20;;
49758;SDS011;70329;45.524;10.194;2023-06-22T09:36:32;27.23;;;14.27;;
49758;SDS011;70329;45.524;10.194;2023-06-22T09:38:58;21.70;;;14.10;;
49758;SDS011;70329;45.524;10.194;2023-06-22T09:41:25;23.75;;;14.13;;
49758;SDS011;70329;45.524;10.194;2023-06-22T09:43:52;25.60;;;14.23;;
49758;SDS011;70329;45.524;10.194;2023-06-22T09:46:19;30.08;;;14.93;;
49758;SDS011;70329;45.524;10.194;2023-06-22T09:48:48;33.70;;;14.73;;
49758;SDS011;70329;45.524;10.194;2023-06-22T09:51:14;30.13;;;14.40;;
49758;SDS011;70329;45.524;10.194;2023-06-22T09:53:41;33.38;;;14.77;;
49758;SDS011;70329;45.524;10.194;2023-06-22T09:56:09;30.75;;;14.52;;
49758;SDS011;70329;45.524;10.194;2023-06-22T09:58:44;30.40;;;13.88;;
49758;SDS011;70329;45.524;10.194;2023-06-22T10:01:13;30.25;;;13.63;;
49758;SDS011;70329;45.524;10.194;2023-06-22T10:03:44;28.02;;;14.00;;
49758;SDS011;70329;45.524;10.194;2023-06-22T10:06:09;27.80;;;13.57;;
49758;SDS011;70329;45.524;10.194;2023-06-22T10:08:37;25.92;;;13.75;;
49758;SDS011;70329;45.524;10.194;2023-06-22T10:11:03;27.48;;;13.85;;
49758;SDS011;70329;45.524;10.194;2023-06-22T10:13:29;28.17;;;13.80;;
49758;SDS011;70329;45.524;10.194;2023-06-22T10:15:54;22.50;;;13.57;;
49758;SDS011;70329;45.524;10.194;2023-06-22T10:18:21;33.53;;;14.35;;
49758;SDS011;70329;45.524;10.194;2023-06-22T10:20:51;36.42;;;14.75;;
49758;SDS011;70329;45.524;10.194;2023-06-22T10:23:17;34.50;;;14.80;;
49758;SDS011;70329;45.524;10.194;2023-06-22T10:25:45;38.17;;;14.80;;
49758;SDS011;70329;45.524;10.194;2023-06-22T10:28:12;35.55;;;14.30;;
49758;SDS011;70329;45.524;10.194;2023-06-22T10:30:42;40.65;;;14.65;;
49758;SDS011;70329;45.524;10.194;2023-06-22T10:33:08;33.35;;;13.77;;
49758;SDS011;70329;45.524;10.194;2023-06-22T10:35:36;24.13;;;13.63;;
49758;SDS011;70329;45.524;10.194;2023-06-22T10:38:05;23.42;;;14.23;;
49758;SDS011;70329;45.524;10.194;2023-06-22T10:40:32;29.20;;;13.68;;
49758;SDS011;70329;45.524;10.194;2023-06-22T10:42:59;23.13;;;12.98;;
49758;SDS011;70329;45.524;10.194;2023-06-22T10:45:26;26.52;;;13.05;;
49758;SDS011;70329;45.524;10.194;2023-06-22T10:47:52;26.23;;;12.68;;
49758;SDS011;70329;45.524;10.194;2023-06-22T10:50:22;27.08;;;13.32;;
49758;SDS011;70329;45.524;10.194;2023-06-22T10:52:49;26.63;;;12.05;;
49758;SDS011;70329;45.524;10.194;2023-06-22T10:55:15;22.00;;;12.20;;
49758;SDS011;70329;45.524;10.194;2023-06-22T10:57:42;24.25;;;12.40;;
49758;SDS011;70329;45.524;10.194;2023-06-22T11:00:13;25.92;;;12.27;;
49758;SDS011;70329;45.524;10.194;2023-06-22T11:02:40;25.35;;;12.57;;
49758;SDS011;70329;45.524;10.194;2023-06-22T11:05:07;22.33;;;12.07;;
49758;SDS011;70329;45.524;10.194;2023-06-22T11:07:36;20.95;;;12.23;;
49758;SDS011;70329;45.524;10.194;2023-06-22T11:10:03;20.30;;;12.18;;
49758;SDS011;70329;45.524;10.194;2023-06-22T11:12:31;21.45;;;12.02;;
49758;SDS011;70329;45.524;10.194;2023-06-22T11:14:57;22.45;;;12.43;;
49758;SDS011;70329;45.524;10.194;2023-06-22T11:17:24;22.75;;;12.25;;
49758;SDS011;70329;45.524;10.194;2023-06-22T11:19:51;85.43;;;52.65;;
49758;SDS011;70329;45.524;10.194;2023-06-22T11:22:18;116.75;;;78.15;;
49758;SDS011;70329;45.524;10.194;2023-06-22T11:24:44;102.45;;;67.35;;
49758;SDS011;70329;45.524;10.194;2023-06-22T11:27:11;88.60;;;58.13;;
49758;SDS011;70329;45.524;10.194;2023-06-22T11:29:37;82.53;;;54.53;;
49758;SDS011;70329;45.524;10.194;2023-06-22T11:32:06;87.30;;;53.72;;
49758;SDS011;70329;45.524;10.194;2023-06-22T11:34:33;74.55;;;48.85;;
49758;SDS011;70329;45.524;10.194;2023-06-22T11:37:00;74.65;;;47.25;;
49758;SDS011;70329;45.524;10.194;2023-06-22T11:39:27;118.78;;;74.25;;
49758;SDS011;70329;45.524;10.194;2023-06-22T11:41:54;106.72;;;71.47;;
49758;SDS011;70329;45.524;10.194;2023-06-22T11:44:20;125.95;;;85.47;;
49758;SDS011;70329;45.524;10.194;2023-06-22T11:46:47;118.43;;;83.68;;
49758;SDS011;70329;45.524;10.194;2023-06-22T11:49:14;111.60;;;76.15;;
49758;SDS011;70329;45.524;10.194;2023-06-22T11:51:41;107.13;;;69.88;;
49758;SDS011;70329;45.524;10.194;2023-06-22T11:54:07;94.55;;;66.80;;
49758;SDS011;70329;45.524;10.194;2023-06-22T11:56:34;93.45;;;61.80;;
49758;SDS011;70329;45.524;10.194;2023-06-22T11:59:01;83.20;;;56.92;;
49758;SDS011;70329;45.524;10.194;2023-06-22T12:01:27;84.03;;;54.03;;
49758;SDS011;70329;45.524;10.194;2023-06-22T12:03:57;74.68;;;51.92;;
49758;SDS011;70329;45.524;10.194;2023-06-22T12:06:25;78.50;;;52.80;;
49758;SDS011;70329;45.524;10.194;2023-06-22T12:08:51;75.15;;;48.03;;
49758;SDS011;70329;45.524;10.194;2023-06-22T12:11:19;69.88;;;49.45;;
49758;SDS011;70329;45.524;10.194;2023-06-22T12:13:45;71.25;;;47.97;;
49758;SDS011;70329;45.524;10.194;2023-06-22T12:16:12;71.30;;;47.05;;
49758;SDS011;70329;45.524;10.194;2023-06-22T12:18:38;71.22;;;47.30;;
49758;SDS011;70329;45.524;10.194;2023-06-22T12:21:05;70.70;;;45.60;;
49758;SDS011;70329;45.524;10.194;2023-06-22T12:23:32;64.60;;;44.25;;
49758;SDS011;70329;45.524;10.194;2023-06-22T12:25:58;63.15;;;44.60;;
49758;SDS011;70329;45.524;10.194;2023-06-22T12:28:26;60.33;;;43.88;;
49758;SDS011;70329;45.524;10.194;2023-06-22T12:30:52;61.65;;;42.15;;
49758;SDS011;70329;45.524;10.194;2023-06-22T12:33:19;61.25;;;41.60;;
49758;SDS011;70329;45.524;10.194;2023-06-22T12:35:45;59.50;;;42.15;;
49758;SDS011;70329;45.524;10.194;2023-06-22T12:38:12;57.13;;;40.22;;
49758;SDS011;70329;45.524;10.194;2023-06-22T12:40:39;57.28;;;39.90;;
49758;SDS011;70329;45.524;10.194;2023-06-22T12:43:05;56.30;;;39.55;;
49758;SDS011;70329;45.524;10.194;2023-06-22T12:45:32;55.50;;;39.40;;
49758;SDS011;70329;45.524;10.194;2023-06-22T12:48:00;53.92;;;38.67;;
49758;SDS011;70329;45.524;10.194;2023-06-22T12:50:27;51.10;;;36.75;;
49758;SDS011;70329;45.524;10.194;2023-06-22T12:52:54;52.33;;;37.72;;
49758;SDS011;70329;45.524;10.194;2023-06-22T12:55:21;48.28;;;36.72;;
49758;SDS011;70329;45.524;10.194;2023-06-22T12:57:46;50.00;;;37.10;;
49758;SDS011;70329;45.524;10.194;2023-06-22T13:00:14;52.92;;;36.83;;
49758;SDS011;70329;45.524;10.194;2023-06-22T13:02:41;51.17;;;36.53;;
49758;SDS011;70329;45.524;10.194;2023-06-22T13:05:07;50.03;;;35.75;;
49758;SDS011;70329;45.524;10.194;2023-06-22T13:07:35;50.30;;;35.88;;
49758;SDS011;70329;45.524;10.194;2023-06-22T13:10:01;47.88;;;34.97;;
49758;SDS011;70329;45.524;10.194;2023-06-22T13:12:34;45.97;;;34.20;;
49758;SDS011;70329;45.524;10.194;2023-06-22T13:15:00;46.75;;;34.30;;
49758;SDS011;70329;45.524;10.194;2023-06-22T13:17:29;45.05;;;33.33;;
49758;SDS011;70329;45.524;10.194;2023-06-22T13:19:54;44.58;;;33.65;;
49758;SDS011;70329;45.524;10.194;2023-06-22T13:22:33;44.28;;;32.83;;
49758;SDS011;70329;45.524;10.194;2023-06-22T13:25:06;44.50;;;33.20;;
49758;SDS011;70329;45.524;10.194;2023-06-22T13:27:33;46.22;;;32.75;;
49758;SDS011;70329;45.524;10.194;2023-06-22T13:29:59;51.97;;;33.17;;
49758;SDS011;70329;45.524;10.194;2023-06-22T13:32:26;57.03;;;39.08;;
49758;SDS011;70329;45.524;10.194;2023-06-22T13:34:52;133.25;;;90.45;;
49758;SDS011;70329;45.524;10.194;2023-06-22T13:37:19;135.48;;;94.22;;
49758;SDS011;70329;45.524;10.194;2023-06-22T13:39:45;117.80;;;82.10;;
49758;SDS011;70329;45.524;10.194;2023-06-22T13:42:10;107.30;;;73.80;;
49758;SDS011;70329;45.524;10.194;2023-06-22T13:44:38;97.13;;;65.15;;
49758;SDS011;70329;45.524;10.194;2023-06-22T13:47:06;94.85;;;61.30;;
49758;SDS011;70329;45.524;10.194;2023-06-22T13:49:33;83.13;;;57.97;;
49758;SDS011;70329;45.524;10.194;2023-06-22T13:52:00;83.43;;;57.85;;
49758;SDS011;70329;45.524;10.194;2023-06-22T13:54:27;83.70;;;55.53;;
49758;SDS011;70329;45.524;10.194;2023-06-22T13:56:54;77.95;;;53.67;;
49758;SDS011;70329;45.524;10.194;2023-06-22T13:59:20;73.30;;;52.38;;
49758;SDS011;70329;45.524;10.194;2023-06-22T14:01:47;71.20;;;49.63;;
49758;SDS011;70329;45.524;10.194;2023-06-22T14:04:14;74.95;;;52.33;;
49758;SDS011;70329;45.524;10.194;2023-06-22T14:06:40;75.43;;;52.90;;
49758;SDS011;70329;45.524;10.194;2023-06-22T14:09:07;75.45;;;50.13;;
49758;SDS011;70329;45.524;10.194;2023-06-22T14:11:33;70.15;;;50.13;;
49758;SDS011;70329;45.524;10.194;2023-06-22T14:14:00;64.78;;;46.47;;
49758;SDS011;70329;45.524;10.194;2023-06-22T14:16:26;63.38;;;41.78;;
49758;SDS011;70329;45.524;10.194;2023-06-22T14:18:53;60.35;;;40.70;;
49758;SDS011;70329;45.524;10.194;2023-06-22T14:21:20;57.83;;;40.78;;
49758;SDS011;70329;45.524;10.194;2023-06-22T14:23:46;57.72;;;41.40;;
49758;SDS011;70329;45.524;10.194;2023-06-22T14:26:15;56.63;;;40.75;;
49758;SDS011;70329;45.524;10.194;2023-06-22T14:28:50;55.05;;;40.05;;
49758;SDS011;70329;45.524;10.194;2023-06-22T14:31:17;56.70;;;40.75;;
49758;SDS011;70329;45.524;10.194;2023-06-22T14:33:46;57.33;;;40.42;;
49758;SDS011;70329;45.524;10.194;2023-06-22T14:36:15;55.30;;;39.80;;
49758;SDS011;70329;45.524;10.194;2023-06-22T14:38:43;54.50;;;39.20;;
49758;SDS011;70329;45.524;10.194;2023-06-22T14:41:09;51.58;;;38.90;;
49758;SDS011;70329;45.524;10.194;2023-06-22T14:43:36;55.30;;;38.75;;
49758;SDS011;70329;45.524;10.194;2023-06-22T14:46:03;49.92;;;36.67;;
49758;SDS011;70329;45.524;10.194;2023-06-22T14:48:30;78.35;;;50.65;;
49758;SDS011;70329;45.524;10.194;2023-06-22T14:50:56;104.47;;;72.13;;
49758;SDS011;70329;45.524;10.194;2023-06-22T14:53:23;120.88;;;88.07;;
49758;SDS011;70329;45.524;10.194;2023-06-22T14:55:49;111.05;;;81.03;;
49758;SDS011;70329;45.524;10.194;2023-06-22T14:58:17;116.40;;;83.28;;
49758;SDS011;70329;45.524;10.194;2023-06-22T15:00:43;118.70;;;85.25;;
49758;SDS011;70329;45.524;10.194;2023-06-22T15:03:11;110.03;;;80.85;;
49758;SDS011;70329;45.524;10.194;2023-06-22T15:05:45;112.63;;;81.38;;
49758;SDS011;70329;45.524;10.194;2023-06-22T15:08:12;108.15;;;79.47;;
49758;SDS011;70329;45.524;10.194;2023-06-22T15:10:38;115.38;;;79.00;;
49758;SDS011;70329;45.524;10.194;2023-06-22T15:13:05;105.15;;;76.43;;
49758;SDS011;70329;45.524;10.194;2023-06-22T15:15:32;107.55;;;76.30;;
49758;SDS011;70329;45.524;10.194;2023-06-22T15:18:00;103.60;;;72.13;;
49758;SDS011;70329;45.524;10.194;2023-06-22T15:20:26;101.38;;;71.05;;
49758;SDS011;70329;45.524;10.194;2023-06-22T15:22:53;101.05;;;71.35;;
49758;SDS011;70329;45.524;10.194;2023-06-22T15:25:18;100.63;;;70.70;;
49758;SDS011;70329;45.524;10.194;2023-06-22T15:27:45;94.63;;;67.47;;
49758;SDS011;70329;45.524;10.194;2023-06-22T15:30:12;90.32;;;66.28;;
49758;SDS011;70329;45.524;10.194;2023-06-22T15:32:38;86.07;;;62.85;;
49758;SDS011;70329;45.524;10.194;2023-06-22T15:35:09;84.00;;;60.83;;
49758;SDS011;70329;45.524;10.194;2023-06-22T15:37:35;82.53;;;59.05;;
49758;SDS011;70329;45.524;10.194;2023-06-22T15:40:02;80.60;;;57.95;;
49758;SDS011;70329;45.524;10.194;2023-06-22T15:42:29;78.63;;;56.42;;
49758;SDS011;70329;45.524;10.194;2023-06-22T15:44:56;77.78;;;57.47;;
49758;SDS011;70329;45.524;10.194;2023-06-22T15:47:23;76.85;;;55.40;;
49758;SDS011;70329;45.524;10.194;2023-06-22T15:49:49;81.30;;;56.35;;
49758;SDS011;70329;45.524;10.194;2023-06-22T15:52:17;75.55;;;54.88;;
49758;SDS011;70329;45.524;10.194;2023-06-22T15:54:45;81.18;;;57.40;;
49758;SDS011;70329;45.524;10.194;2023-06-22T15:57:17;76.38;;;55.85;;
49758;SDS011;70329;45.524;10.194;2023-06-22T15:59:42;72.78;;;53.53;;
49758;SDS011;70329;45.524;10.194;2023-06-22T16:02:09;72.85;;;53.15;;
49758;SDS011;70329;45.524;10.194;2023-06-22T16:04:37;70.88;;;49.63;;
49758;SDS011;70329;45.524;10.194;2023-06-22T16:07:04;68.60;;;49.50;;
49758;SDS011;70329;45.524;10.194;2023-06-22T16:09:31;68.70;;;51.55;;
49758;SDS011;70329;45.524;10.194;2023-06-22T16:11:58;70.25;;;51.22;;
49758;SDS011;70329;45.524;10.194;2023-06-22T16:14:25;69.82;;;51.63;;
49758;SDS011;70329;45.524;10.194;2023-06-22T16:16:50;69.38;;;51.25;;
49758;SDS011;70329;45.524;10.194;2023-06-22T16:19:17;66.90;;;49.08;;
49758;SDS011;70329;45.524;10.194;2023-06-22T16:21:44;64.95;;;48.42;;
49758;SDS011;70329;45.524;10.194;2023-06-22T16:24:10;68.57;;;48.88;;
49758;SDS011;70329;45.524;10.194;2023-06-22T16:26:41;65.22;;;48.10;;
49758;SDS011;70329;45.524;10.194;2023-06-22T16:29:09;62.28;;;47.00;;
49758;SDS011;70329;45.524;10.194;2023-06-22T16:31:36;62.55;;;45.97;;
49758;SDS011;70329;45.524;10.194;2023-06-22T16:34:03;60.17;;;46.33;;
49758;SDS011;70329;45.524;10.194;2023-06-22T16:36:30;63.65;;;45.40;;
49758;SDS011;70329;45.524;10.194;2023-06-22T16:38:56;59.33;;;45.00;;
49758;SDS011;70329;45.524;10.194;2023-06-22T16:41:23;64.03;;;45.00;;
49758;SDS011;70329;45.524;10.194;2023-06-22T16:43:52;62.13;;;44.85;;
49758;SDS011;70329;45.524;10.194;2023-06-22T16:46:17;55.83;;;42.63;;
49758;SDS011;70329;45.524;10.194;2023-06-22T16:48:49;61.08;;;43.75;;
49758;SDS011;70329;45.524;10.194;2023-06-22T16:51:21;56.75;;;43.75;;
49758;SDS011;70329;45.524;10.194;2023-06-22T16:53:48;54.58;;;42.30;;
49758;SDS011;70329;45.524;10.194;2023-06-22T16:56:29;59.67;;;43.92;;
49758;SDS011;70329;45.524;10.194;2023-06-22T16:58:57;59.05;;;44.28;;
49758;SDS011;70329;45.524;10.194;2023-06-22T17:01:24;55.53;;;43.17;;
49758;SDS011;70329;45.524;10.194;2023-06-22T17:03:55;53.00;;;40.65;;
49758;SDS011;70329;45.524;10.194;2023-06-22T17:06:23;53.10;;;40.65;;
49758;SDS011;70329;45.524;10.194;2023-06-22T17:08:49;57.05;;;41.42;;
49758;SDS011;70329;45.524;10.194;2023-06-22T17:11:17;54.60;;;40.58;;
49758;SDS011;70329;45.524;10.194;2023-06-22T17:13:44;54.05;;;40.10;;
49758;SDS011;70329;45.524;10.194;2023-06-22T17:16:13;61.72;;;40.72;;
49758;SDS011;70329;45.524;10.194;2023-06-22T17:18:40;54.58;;;41.58;;
49758;SDS011;70329;45.524;10.194;2023-06-22T17:21:12;52.63;;;40.45;;
49758;SDS011;70329;45.524;10.194;2023-06-22T17:23:39;56.53;;;42.28;;
49758;SDS011;70329;45.524;10.194;2023-06-22T17:26:06;55.15;;;41.20;;
49758;SDS011;70329;45.524;10.194;2023-06-22T17:28:51;52.28;;;40.28;;
49758;SDS011;70329;45.524;10.194;2023-06-22T17:31:36;57.95;;;42.15;;
49758;SDS011;70329;45.524;10.194;2023-06-22T17:34:17;52.75;;;40.70;;
49758;SDS011;70329;45.524;10.194;2023-06-22T17:36:52;53.50;;;40.08;;
49758;SDS011;70329;45.524;10.194;2023-06-22T17:39:19;52.90;;;39.72;;
49758;SDS011;70329;45.524;10.194;2023-06-22T17:41:48;51.60;;;38.70;;
49758;SDS011;70329;45.524;10.194;2023-06-22T17:44:25;50.22;;;36.60;;
49758;SDS011;70329;45.524;10.194;2023-06-22T17:49:27;52.47;;;37.90;;
49758;SDS011;70329;45.524;10.194;2023-06-22T17:51:54;38.47;;;28.30;;
49758;SDS011;70329;45.524;10.194;2023-06-22T17:54:21;38.58;;;26.27;;
49758;SDS011;70329;45.524;10.194;2023-06-22T17:56:49;41.15;;;27.50;;
49758;SDS011;70329;45.524;10.194;2023-06-22T17:59:18;40.28;;;27.92;;
49758;SDS011;70329;45.524;10.194;2023-06-22T18:01:47;47.47;;;31.85;;
49758;SDS011;70329;45.524;10.194;2023-06-22T18:04:15;46.20;;;30.80;;
49758;SDS011;70329;45.524;10.194;2023-06-22T18:06:46;43.35;;;30.90;;
49758;SDS011;70329;45.524;10.194;2023-06-22T18:09:14;43.05;;;31.63;;
49758;SDS011;70329;45.524;10.194;2023-06-22T18:11:49;48.33;;;32.72;;
49758;SDS011;70329;45.524;10.194;2023-06-22T18:14:17;44.97;;;32.03;;
49758;SDS011;70329;45.524;10.194;2023-06-22T18:16:47;41.25;;;30.88;;
49758;SDS011;70329;45.524;10.194;2023-06-22T18:19:15;47.22;;;30.30;;
49758;SDS011;70329;45.524;10.194;2023-06-22T18:21:46;46.30;;;30.85;;
49758;SDS011;70329;45.524;10.194;2023-06-22T18:24:13;41.42;;;29.90;;
49758;SDS011;70329;45.524;10.194;2023-06-22T18:26:42;43.22;;;30.95;;
49758;SDS011;70329;45.524;10.194;2023-06-22T18:29:10;41.95;;;30.20;;
49758;SDS011;70329;45.524;10.194;2023-06-22T18:31:37;41.08;;;28.85;;
49758;SDS011;70329;45.524;10.194;2023-06-22T18:34:04;40.22;;;29.52;;
49758;SDS011;70329;45.524;10.194;2023-06-22T18:36:39;42.75;;;29.52;;
49758;SDS011;70329;45.524;10.194;2023-06-22T18:39:11;40.92;;;28.40;;
49758;SDS011;70329;45.524;10.194;2023-06-22T18:41:40;42.00;;;27.95;;
49758;SDS011;70329;45.524;10.194;2023-06-22T18:44:51;38.38;;;28.27;;
49758;SDS011;70329;45.524;10.194;2023-06-22T18:47:05;38.97;;;29.20;;
49758;SDS011;70329;45.524;10.194;2023-06-22T18:49:47;39.35;;;27.52;;
49758;SDS011;70329;45.524;10.194;2023-06-22T18:52:18;40.92;;;28.67;;
49758;SDS011;70329;45.524;10.194;2023-06-22T18:54:52;39.75;;;27.70;;
49758;SDS011;70329;45.524;10.194;2023-06-22T18:57:26;35.78;;;26.85;;
49758;SDS011;70329;45.524;10.194;2023-06-22T19:04:54;35.63;;;26.05;;
49758;SDS011;70329;45.524;10.194;2023-06-22T19:10:25;37.60;;;27.42;;
49758;SDS011;70329;45.524;10.194;2023-06-22T19:12:56;38.53;;;26.92;;
49758;SDS011;70329;45.524;10.194;2023-06-22T19:15:33;36.65;;;27.25;;
49758;SDS011;70329;45.524;10.194;2023-06-22T19:18:00;37.97;;;26.73;;
49758;SDS011;70329;45.524;10.194;2023-06-22T19:20:39;33.65;;;26.65;;
49758;SDS011;70329;45.524;10.194;2023-06-22T19:23:06;36.65;;;26.50;;
49758;SDS011;70329;45.524;10.194;2023-06-22T19:25:51;37.53;;;25.73;;
49758;SDS011;70329;45.524;10.194;2023-06-22T19:28:24;38.22;;;27.40;;
49758;SDS011;70329;45.524;10.194;2023-06-22T19:30:58;34.40;;;26.20;;
49758;SDS011;70329;45.524;10.194;2023-06-22T19:33:30;36.92;;;26.23;;
49758;SDS011;70329;45.524;10.194;2023-06-22T19:35:59;34.25;;;26.02;;
49758;SDS011;70329;45.524;10.194;2023-06-22T19:38:29;31.98;;;24.35;;
49758;SDS011;70329;45.524;10.194;2023-06-22T19:41:01;40.88;;;25.70;;
49758;SDS011;70329;45.524;10.194;2023-06-22T19:43:29;30.05;;;24.77;;
49758;SDS011;70329;45.524;10.194;2023-06-22T19:45:58;32.90;;;26.27;;
49758;SDS011;70329;45.524;10.194;2023-06-22T19:48:26;37.50;;;26.02;;
49758;SDS011;70329;45.524;10.194;2023-06-22T19:50:55;34.72;;;25.48;;
49758;SDS011;70329;45.524;10.194;2023-06-22T19:53:33;33.25;;;25.75;;
49758;SDS011;70329;45.524;10.194;2023-06-22T19:55:59;31.08;;;24.77;;
49758;SDS011;70329;45.524;10.194;2023-06-22T19:58:30;35.10;;;25.50;;
49758;SDS011;70329;45.524;10.194;2023-06-22T20:00:58;32.95;;;26.00;;
49758;SDS011;70329;45.524;10.194;2023-06-22T20:03:32;30.90;;;24.55;;
49758;SDS011;70329;45.524;10.194;2023-06-22T20:06:15;45.42;;;33.53;;
49758;SDS011;70329;45.524;10.194;2023-06-22T20:08:50;70.45;;;44.80;;
49758;SDS011;70329;45.524;10.194;2023-06-22T20:11:36;64.25;;;42.63;;
49758;SDS011;70329;45.524;10.194;2023-06-22T20:14:05;63.40;;;41.65;;
49758;SDS011;70329;45.524;10.194;2023-06-22T20:16:34;69.57;;;43.88;;
49758;SDS011;70329;45.524;10.194;2023-06-22T20:19:12;70.78;;;43.20;;
49758;SDS011;70329;45.524;10.194;2023-06-22T20:21:40;66.90;;;43.60;;
49758;SDS011;70329;45.524;10.194;2023-06-22T20:24:10;70.18;;;44.28;;
49758;SDS011;70329;45.524;10.194;2023-06-22T20:26:42;67.03;;;42.45;;
49758;SDS011;70329;45.524;10.194;2023-06-22T20:32:07;65.22;;;42.33;;
49758;SDS011;70329;45.524;10.194;2023-06-22T20:34:45;104.15;;;62.78;;
49758;SDS011;70329;45.524;10.194;2023-06-22T20:37:15;98.00;;;64.13;;
49758;SDS011;70329;45.524;10.194;2023-06-22T20:39:44;78.15;;;52.90;;
49758;SDS011;70329;45.524;10.194;2023-06-22T20:42:11;78.57;;;51.90;;
49758;SDS011;70329;45.524;10.194;2023-06-22T20:44:39;65.78;;;44.75;;
49758;SDS011;70329;45.524;10.194;2023-06-22T20:47:06;64.82;;;42.58;;
49758;SDS011;70329;45.524;10.194;2023-06-22T20:49:35;65.60;;;43.88;;
49758;SDS011;70329;45.524;10.194;2023-06-22T20:52:03;63.20;;;42.08;;
49758;SDS011;70329;45.524;10.194;2023-06-22T20:54:32;63.83;;;40.92;;
49758;SDS011;70329;45.524;10.194;2023-06-22T20:57:00;65.63;;;42.15;;
49758;SDS011;70329;45.524;10.194;2023-06-22T20:59:27;62.88;;;42.88;;
49758;SDS011;70329;45.524;10.194;2023-06-22T21:01:53;60.97;;;41.15;;
49758;SDS011;70329;45.524;10.194;2023-06-22T21:04:23;61.17;;;40.25;;
49758;SDS011;70329;45.524;10.194;2023-06-22T21:06:50;59.75;;;40.88;;
49758;SDS011;70329;45.524;10.194;2023-06-22T21:09:17;64.95;;;42.15;;
49758;SDS011;70329;45.524;10.194;2023-06-22T21:11:44;62.13;;;41.72;;
49758;SDS011;70329;45.524;10.194;2023-06-22T21:14:11;61.88;;;41.10;;
49758;SDS011;70329;45.524;10.194;2023-06-22T21:16:38;59.90;;;39.30;;
49758;SDS011;70329;45.524;10.194;2023-06-22T21:19:04;60.55;;;36.33;;
49758;SDS011;70329;45.524;10.194;2023-06-22T21:21:31;42.63;;;28.83;;
49758;SDS011;70329;45.524;10.194;2023-06-22T21:23:57;43.28;;;28.55;;
49758;SDS011;70329;45.524;10.194;2023-06-22T21:26:24;48.42;;;33.78;;
49758;SDS011;70329;45.524;10.194;2023-06-22T21:28:49;47.33;;;32.92;;
49758;SDS011;70329;45.524;10.194;2023-06-22T21:31:17;44.80;;;29.13;;
49758;SDS011;70329;45.524;10.194;2023-06-22T21:33:44;42.25;;;28.25;;
49758;SDS011;70329;45.524;10.194;2023-06-22T21:36:11;40.13;;;25.50;;
49758;SDS011;70329;45.524;10.194;2023-06-22T21:40:58;31.80;;;23.33;;
49758;SDS011;70329;45.524;10.194;2023-06-22T21:43:25;28.52;;;22.42;;
49758;SDS011;70329;45.524;10.194;2023-06-22T21:45:51;29.58;;;21.92;;
49758;SDS011;70329;45.524;10.194;2023-06-22T21:48:19;28.98;;;20.92;;
49758;SDS011;70329;45.524;10.194;2023-06-22T21:50:46;30.95;;;21.65;;
49758;SDS011;70329;45.524;10.194;2023-06-22T21:53:12;33.03;;;22.27;;
49758;SDS011;70329;45.524;10.194;2023-06-22T21:55:39;30.20;;;21.30;;
49758;SDS011;70329;45.524;10.194;2023-06-22T21:58:06;32.35;;;21.92;;
49758;SDS011;70329;45.524;10.194;2023-06-22T22:00:34;33.45;;;21.63;;
49758;SDS011;70329;45.524;10.194;2023-06-22T22:03:00;30.17;;;22.05;;
49758;SDS011;70329;45.524;10.194;2023-06-22T22:05:27;32.92;;;21.58;;
49758;SDS011;70329;45.524;10.194;2023-06-22T22:07:54;29.95;;;20.80;;
49758;SDS011;70329;45.524;10.194;2023-06-22T22:10:21;30.67;;;20.52;;
49758;SDS011;70329;45.524;10.194;2023-06-22T22:12:47;35.35;;;21.60;;
49758;SDS011;70329;45.524;10.194;2023-06-22T22:15:16;30.67;;;19.95;;
49758;SDS011;70329;45.524;10.194;2023-06-22T22:17:43;31.40;;;20.38;;
49758;SDS011;70329;45.524;10.194;2023-06-22T22:20:11;28.27;;;21.58;;
49758;SDS011;70329;45.524;10.194;2023-06-22T22:22:38;26.85;;;19.98;;
49758;SDS011;70329;45.524;10.194;2023-06-22T22:25:05;27.70;;;20.20;;
49758;SDS011;70329;45.524;10.194;2023-06-22T22:27:32;28.80;;;20.27;;
49758;SDS011;70329;45.524;10.194;2023-06-22T22:29:59;29.88;;;20.30;;
49758;SDS011;70329;45.524;10.194;2023-06-22T22:32:25;25.95;;;19.02;;
49758;SDS011;70329;45.524;10.194;2023-06-22T22:34:52;27.42;;;20.05;;
49758;SDS011;70329;45.524;10.194;2023-06-22T22:37:20;28.52;;;20.58;;
49758;SDS011;70329;45.524;10.194;2023-06-22T22:39:47;26.20;;;19.77;;
49758;SDS011;70329;45.524;10.194;2023-06-22T22:42:13;31.83;;;20.70;;
49758;SDS011;70329;45.524;10.194;2023-06-22T22:44:40;28.92;;;19.77;;
49758;SDS011;70329;45.524;10.194;2023-06-22T22:47:06;26.50;;;19.58;;
49758;SDS011;70329;45.524;10.194;2023-06-22T22:49:33;24.00;;;18.95;;
49758;SDS011;70329;45.524;10.194;2023-06-22T22:52:00;26.23;;;20.20;;
49758;SDS011;70329;45.524;10.194;2023-06-22T22:54:26;25.77;;;19.25;;
49758;SDS011;70329;45.524;10.194;2023-06-22T22:56:53;24.77;;;18.73;;
49758;SDS011;70329;45.524;10.194;2023-06-22T22:59:20;26.77;;;18.25;;
49758;SDS011;70329;45.524;10.194;2023-06-22T23:01:47;25.85;;;19.60;;
49758;SDS011;70329;45.524;10.194;2023-06-22T23:04:13;24.63;;;19.00;;
49758;SDS011;70329;45.524;10.194;2023-06-22T23:06:44;26.67;;;18.42;;
49758;SDS011;70329;45.524;10.194;2023-06-22T23:09:11;27.17;;;18.95;;
49758;SDS011;70329;45.524;10.194;2023-06-22T23:11:37;27.48;;;18.58;;
49758;SDS011;70329;45.524;10.194;2023-06-22T23:14:04;29.88;;;18.95;;
49758;SDS011;70329;45.524;10.194;2023-06-22T23:16:30;23.25;;;18.27;;
49758;SDS011;70329;45.524;10.194;2023-06-22T23:18:57;22.98;;;17.70;;
49758;SDS011;70329;45.524;10.194;2023-06-22T23:21:25;24.15;;;17.98;;
49758;SDS011;70329;45.524;10.194;2023-06-22T23:23:55;21.63;;;17.00;;
49758;SDS011;70329;45.524;10.194;2023-06-22T23:26:22;23.15;;;17.67;;
49758;SDS011;70329;45.524;10.194;2023-06-22T23:28:49;24.58;;;17.77;;
49758;SDS011;70329;45.524;10.194;2023-06-22T23:31:16;24.33;;;17.73;;
49758;SDS011;70329;45.524;10.194;2023-06-22T23:33:42;25.45;;;17.52;;